Presidente Kennedy, Brazil
Current Conditions -  °F | °C
As of 5:00 PM on Thursday 18 Dec 2014 (Local Time) from SBCP Reporting Station
Clear Clear  
Wind Chill: 88°   Ceiling: Unl
Heat Index: 96°   Visibility: 6mi
Dew Point: 73°   Wind: 21mph
Humidity: 62%   Direction: 70°ENE
Pressure: 29.77"   Gusts: NA
Location:  21.1°S, 41.05°W
Report Text: SBCP 181900Z 07018KT CAVOK 31/23 Q1008
Loading
Personal Weather Stations






























Interactive Weather Map New forecast layout! Learn more

10-Day Weather Forecast

Advertisements
Track Severe Weather on mobile